createdAt,value
2023-05-12T00:01:52.947Z,53.57
2023-05-12T00:04:19.699Z,53.87
2023-05-12T00:06:46.272Z,53.89
2023-05-12T00:09:12.806Z,53.53
2023-05-12T00:11:39.449Z,53.38
2023-05-12T00:14:06.554Z,53.50
2023-05-12T00:16:33.153Z,53.08
2023-05-12T00:19:00.704Z,53.60
2023-05-12T00:21:27.457Z,53.59
2023-05-12T00:23:53.899Z,53.46
2023-05-12T00:26:20.672Z,53.58
2023-05-12T00:28:48.106Z,54.12
2023-05-12T00:31:15.235Z,53.37
2023-05-12T00:33:41.991Z,53.60
2023-05-12T00:36:08.804Z,53.72
2023-05-12T00:38:36.664Z,53.91
2023-05-12T00:41:04.032Z,53.78
2023-05-12T00:43:31.386Z,54.28
2023-05-12T00:45:58.545Z,54.09
2023-05-12T00:48:25.531Z,53.96
2023-05-12T00:50:54.120Z,54.32
2023-05-12T00:53:20.949Z,54.24
2023-05-12T00:55:47.617Z,54.42
2023-05-12T00:58:14.683Z,54.02
2023-05-12T01:00:41.438Z,54.49
2023-05-12T01:03:08.443Z,54.58
2023-05-12T01:06:01.001Z,54.37
2023-05-12T01:08:28.404Z,54.45
2023-05-12T01:10:55.065Z,54.51
2023-05-12T01:13:21.548Z,55.03
2023-05-12T01:15:51.695Z,54.95
2023-05-12T01:18:21.034Z,54.87
2023-05-12T01:20:48.264Z,54.93
2023-05-12T01:23:19.042Z,54.89
2023-05-12T01:25:49.583Z,54.78
2023-05-12T01:28:17.430Z,54.77
2023-05-12T01:30:45.486Z,55.04
2023-05-12T01:33:13.605Z,55.06
2023-05-12T01:35:40.239Z,55.28
2023-05-12T01:38:06.749Z,55.10
2023-05-12T01:40:36.815Z,55.19
2023-05-12T01:43:03.431Z,55.36
2023-05-12T01:45:32.913Z,55.34
2023-05-12T01:47:59.802Z,55.39
2023-05-12T01:50:26.918Z,55.43
2023-05-12T01:52:53.783Z,55.91
2023-05-12T01:55:20.901Z,55.76
2023-05-12T01:57:53.965Z,55.83
2023-05-12T02:00:21.067Z,56.07
2023-05-12T02:02:48.067Z,55.84
2023-05-12T02:05:15.337Z,56.14
2023-05-12T02:07:43.540Z,56.36
2023-05-12T02:10:10.816Z,56.04
2023-05-12T02:12:38.232Z,55.99
2023-05-12T02:15:05.645Z,56.40
2023-05-12T02:17:32.719Z,56.40
2023-05-12T02:20:01.549Z,56.17
2023-05-12T02:22:28.063Z,56.70
2023-05-12T02:24:55.236Z,57.06
2023-05-12T02:27:22.266Z,57.35
2023-05-12T02:29:49.014Z,57.14
2023-05-12T02:32:16.117Z,56.88
2023-05-12T02:34:45.251Z,56.84
2023-05-12T02:37:11.816Z,56.95
2023-05-12T02:39:38.625Z,57.35
2023-05-12T02:42:05.860Z,57.31
2023-05-12T02:44:32.430Z,57.44
2023-05-12T02:46:59.332Z,57.22
2023-05-12T02:49:25.781Z,57.18
2023-05-12T02:51:52.264Z,57.32
2023-05-12T02:54:19.035Z,57.80
2023-05-12T02:56:45.616Z,57.43
2023-05-12T02:59:12.072Z,57.91
2023-05-12T03:01:38.895Z,57.77
2023-05-12T03:04:05.629Z,57.93
2023-05-12T03:06:32.677Z,58.14
2023-05-12T03:08:59.615Z,58.00
2023-05-12T03:11:26.166Z,58.17
2023-05-12T03:13:52.775Z,58.36
2023-05-12T03:16:19.954Z,58.20
2023-05-12T03:18:47.168Z,58.52
2023-05-12T03:21:13.784Z,58.48
2023-05-12T03:23:40.690Z,58.18
2023-05-12T03:26:07.308Z,58.14
2023-05-12T03:28:34.821Z,58.60
2023-05-12T03:31:01.510Z,59.06
2023-05-12T03:33:28.927Z,58.64
2023-05-12T03:35:56.190Z,58.76
2023-05-12T03:38:23.020Z,58.53
2023-05-12T03:40:52.146Z,58.60
2023-05-12T03:43:19.019Z,58.59
2023-05-12T03:45:45.561Z,58.40
2023-05-12T03:48:12.186Z,58.65
2023-05-12T03:50:38.770Z,58.78
2023-05-12T03:53:05.459Z,58.54
2023-05-12T03:55:34.706Z,58.33
2023-05-12T03:58:01.404Z,58.46
2023-05-12T04:00:28.301Z,58.42
2023-05-12T04:02:55.108Z,58.04
2023-05-12T04:05:21.819Z,58.34
2023-05-12T04:07:48.450Z,58.13
2023-05-12T04:10:15.656Z,58.56
2023-05-12T04:12:42.202Z,58.29
2023-05-12T04:15:09.396Z,59.06
2023-05-12T04:17:36.427Z,58.91
2023-05-12T04:20:03.614Z,58.68
2023-05-12T04:22:30.270Z,58.30
2023-05-12T04:24:57.010Z,58.23
2023-05-12T04:27:23.788Z,58.55
2023-05-12T04:29:51.149Z,58.33
2023-05-12T04:32:17.967Z,58.13
2023-05-12T04:34:45.310Z,58.08
2023-05-12T04:37:11.977Z,57.99
2023-05-12T04:39:39.154Z,57.61
2023-05-12T04:42:06.673Z,57.23
2023-05-12T04:44:34.544Z,57.23
2023-05-12T04:47:01.107Z,57.27
2023-05-12T04:49:27.833Z,57.48
2023-05-12T04:51:54.458Z,57.10
2023-05-12T04:54:21.395Z,56.82
2023-05-12T04:56:48.123Z,56.51
2023-05-12T04:59:15.478Z,56.35
2023-05-12T05:01:42.687Z,56.19
2023-05-12T05:04:09.437Z,56.05
2023-05-12T05:06:36.520Z,55.92
2023-05-12T05:09:03.517Z,56.14
2023-05-12T05:11:30.435Z,55.73
2023-05-12T05:13:57.472Z,55.46
2023-05-12T05:16:24.754Z,55.30
2023-05-12T05:18:51.889Z,55.32
2023-05-12T05:21:18.904Z,55.01
2023-05-12T05:23:45.753Z,54.73
2023-05-12T05:26:12.357Z,54.56
2023-05-12T05:28:39.579Z,54.38
2023-05-12T05:31:07.796Z,54.20
2023-05-12T05:33:34.459Z,54.05
2023-05-12T05:36:01.456Z,53.92
2023-05-12T05:38:28.281Z,53.67
2023-05-12T05:40:54.973Z,53.28
2023-05-12T05:43:24.348Z,53.24
2023-05-12T05:45:55.354Z,52.76
2023-05-12T05:48:22.341Z,52.86
2023-05-12T05:50:51.387Z,51.98
2023-05-12T05:53:19.646Z,52.19
2023-05-12T05:55:48.149Z,51.99
2023-05-12T05:58:15.655Z,51.87
2023-05-12T06:00:43.323Z,51.54
2023-05-12T06:03:10.043Z,51.48
2023-05-12T06:05:37.398Z,51.36
2023-05-12T06:08:04.828Z,51.01
2023-05-12T06:10:31.586Z,51.09
2023-05-12T06:12:58.529Z,50.83
2023-05-12T06:15:25.393Z,50.48
2023-05-12T06:17:52.001Z,50.40
2023-05-12T06:20:19.518Z,50.42
2023-05-12T06:22:46.372Z,49.99
2023-05-12T06:25:12.929Z,50.13
2023-05-12T06:27:39.621Z,49.74
2023-05-12T06:30:06.962Z,49.57
2023-05-12T06:32:33.773Z,49.17
2023-05-12T06:35:00.806Z,49.20
2023-05-12T06:37:27.303Z,49.20
2023-05-12T06:39:53.922Z,48.63
2023-05-12T06:42:20.748Z,48.27
2023-05-12T06:44:51.420Z,47.97
2023-05-12T06:47:20.552Z,47.75
2023-05-12T06:49:49.528Z,47.75
2023-05-12T06:52:16.819Z,47.50
2023-05-12T06:54:43.435Z,47.63
2023-05-12T06:57:10.334Z,47.18
2023-05-12T06:59:36.899Z,46.70
2023-05-12T07:02:03.645Z,46.80
2023-05-12T07:04:30.479Z,46.61
2023-05-12T07:06:57.018Z,46.70
2023-05-12T07:09:24.034Z,46.74
2023-05-12T07:11:50.829Z,46.84
2023-05-12T07:14:17.545Z,46.06
2023-05-12T07:16:44.127Z,45.66
2023-05-12T07:19:10.960Z,45.66
2023-05-12T07:21:37.593Z,45.19
2023-05-12T07:24:05.648Z,44.21
2023-05-12T07:26:32.973Z,44.32
2023-05-12T07:29:00.238Z,44.30
2023-05-12T07:31:27.046Z,44.62
2023-05-12T07:33:54.215Z,44.37
2023-05-12T07:36:22.101Z,43.79
2023-05-12T07:38:49.365Z,43.95
2023-05-12T07:41:16.838Z,43.99
2023-05-12T07:43:43.441Z,42.95
2023-05-12T07:46:10.406Z,41.52
2023-05-12T07:48:39.439Z,41.71
2023-05-12T07:51:06.660Z,41.74
2023-05-12T07:53:33.497Z,41.56
2023-05-12T07:56:00.248Z,41.64
2023-05-12T07:58:26.782Z,40.62
2023-05-12T08:00:54.018Z,39.95
2023-05-12T08:03:20.982Z,40.80
2023-05-12T08:05:49.162Z,40.44
2023-05-12T08:08:16.123Z,39.97
2023-05-12T08:10:43.660Z,39.69
2023-05-12T08:13:10.170Z,39.13
2023-05-12T08:15:37.038Z,37.88
2023-05-12T08:18:03.932Z,37.39
2023-05-12T08:20:31.639Z,36.95
2023-05-12T08:22:58.216Z,37.44
2023-05-12T08:25:26.537Z,37.31
2023-05-12T08:27:53.193Z,37.33
2023-05-12T08:30:19.898Z,36.44
2023-05-12T08:32:46.721Z,35.28
2023-05-12T08:35:13.330Z,35.44
2023-05-12T08:37:40.185Z,35.53
2023-05-12T08:40:16.082Z,35.17
2023-05-12T08:42:48.265Z,35.48
2023-05-12T08:45:15.094Z,35.65
2023-05-12T08:47:43.050Z,34.18
2023-05-12T08:50:10.014Z,34.66
2023-05-12T08:52:37.092Z,35.04
2023-05-12T08:55:04.322Z,34.96
2023-05-12T08:57:31.067Z,34.66
2023-05-12T09:00:00.550Z,34.33
2023-05-12T09:02:35.049Z,34.41
2023-05-12T09:05:11.458Z,34.41
2023-05-12T09:07:43.098Z,33.87
2023-05-12T09:10:32.958Z,33.58
2023-05-12T09:13:14.636Z,33.39
2023-05-12T09:15:45.339Z,32.87
2023-05-12T09:18:11.929Z,33.15
2023-05-12T09:20:38.415Z,32.52
2023-05-12T09:23:16.011Z,31.40
2023-05-12T09:25:42.547Z,31.73
2023-05-12T09:28:09.354Z,32.26
2023-05-12T09:30:37.981Z,31.44
2023-05-12T09:33:09.620Z,31.59
2023-05-12T09:35:44.379Z,31.49
2023-05-12T09:38:13.381Z,31.86
2023-05-12T09:40:40.477Z,31.86
2023-05-12T09:43:07.754Z,32.39
2023-05-12T09:45:35.796Z,32.08
2023-05-12T09:48:10.841Z,31.50
2023-05-12T09:50:48.641Z,32.09
2023-05-12T09:53:18.332Z,31.91
2023-05-12T09:55:46.452Z,30.66
2023-05-12T09:58:16.179Z,31.09
2023-05-12T10:00:59.088Z,31.55
2023-05-12T10:03:32.872Z,30.79
2023-05-12T10:06:02.215Z,31.09
2023-05-12T10:08:43.926Z,30.73
2023-05-12T10:11:11.039Z,31.36
2023-05-12T10:13:38.321Z,30.93
2023-05-12T10:16:06.790Z,29.84
2023-05-12T10:18:34.172Z,29.65
2023-05-12T10:21:01.889Z,29.99
2023-05-12T10:23:29.635Z,30.33
2023-05-12T10:26:01.134Z,30.53
2023-05-12T10:28:28.574Z,30.30
2023-05-12T10:30:57.165Z,29.96
2023-05-12T10:33:24.914Z,29.51
2023-05-12T10:35:52.432Z,29.39
2023-05-12T10:38:19.722Z,29.82
2023-05-12T10:41:00.434Z,28.69
2023-05-12T10:43:29.253Z,28.49
2023-05-12T10:46:16.390Z,27.99
2023-05-12T10:48:54.574Z,28.29
2023-05-12T10:51:27.834Z,29.04
2023-05-12T10:54:05.253Z,29.23
2023-05-12T10:56:38.137Z,29.53
2023-05-12T10:59:18.857Z,29.25
2023-05-12T11:02:03.951Z,28.98
2023-05-12T11:04:53.049Z,29.08
2023-05-12T11:07:24.732Z,28.58
2023-05-12T11:09:58.712Z,28.96
2023-05-12T11:12:31.680Z,29.24
2023-05-12T11:15:02.748Z,28.74
2023-05-12T11:17:30.519Z,28.11
2023-05-12T11:19:57.997Z,28.57
2023-05-12T11:22:24.689Z,28.03
2023-05-12T11:24:52.188Z,28.21
2023-05-12T11:27:21.983Z,27.98
2023-05-12T11:30:00.074Z,28.26
2023-05-12T11:32:27.411Z,27.67
2023-05-12T11:34:55.469Z,27.80
2023-05-12T11:37:22.567Z,27.65
2023-05-12T11:39:49.397Z,27.55
2023-05-12T11:42:18.928Z,27.24
2023-05-12T11:44:48.987Z,27.62
2023-05-12T11:47:18.696Z,27.51
2023-05-12T11:49:47.662Z,27.62
2023-05-12T11:52:14.917Z,27.28
2023-05-12T11:54:57.989Z,27.46
2023-05-12T11:57:32.782Z,27.55
2023-05-12T12:00:08.903Z,26.63
2023-05-12T12:02:42.721Z,26.81
2023-05-12T12:05:17.722Z,26.87
2023-05-12T12:07:44.892Z,26.84
2023-05-12T12:10:13.349Z,27.08
2023-05-12T12:12:41.039Z,27.08
2023-05-12T12:15:09.303Z,27.17
2023-05-12T12:17:40.200Z,27.48
2023-05-12T12:20:11.718Z,27.77
2023-05-12T12:22:38.495Z,28.17
2023-05-12T12:25:05.591Z,27.58
2023-05-12T12:27:32.255Z,27.91
2023-05-12T12:30:00.331Z,28.19
2023-05-12T12:32:27.064Z,27.99
2023-05-12T12:34:53.854Z,27.98
2023-05-12T12:37:20.452Z,27.84
2023-05-12T12:39:47.487Z,28.00
2023-05-12T12:42:17.006Z,27.99
2023-05-12T12:44:45.504Z,27.92
2023-05-12T12:47:12.113Z,27.90
2023-05-12T12:49:41.294Z,27.42
2023-05-12T12:52:08.507Z,27.88
2023-05-12T12:54:35.092Z,27.47
2023-05-12T12:57:02.023Z,27.69
2023-05-12T12:59:28.752Z,27.93
2023-05-12T13:01:56.285Z,27.68
2023-05-12T13:04:23.080Z,27.15
2023-05-12T13:06:49.882Z,27.02
2023-05-12T13:09:19.523Z,27.00
2023-05-12T13:11:47.601Z,27.45
2023-05-12T13:14:15.495Z,27.31
2023-05-12T13:16:42.686Z,27.56
2023-05-12T13:19:09.733Z,27.77
2023-05-12T13:21:37.244Z,27.11
2023-05-12T13:24:03.854Z,26.89
2023-05-12T13:26:30.462Z,26.94
2023-05-12T13:28:57.116Z,27.30
2023-05-12T13:31:23.743Z,27.45
2023-05-12T13:33:50.737Z,27.38
2023-05-12T13:36:17.476Z,27.40
2023-05-12T13:38:44.025Z,26.90
2023-05-12T13:41:10.744Z,27.23
2023-05-12T13:43:37.495Z,27.07
2023-05-12T13:46:04.014Z,27.18
2023-05-12T13:48:30.578Z,27.07
2023-05-12T13:50:57.240Z,26.51
2023-05-12T13:53:23.711Z,26.95
2023-05-12T13:55:50.315Z,27.09
2023-05-12T13:58:16.930Z,27.42
2023-05-12T14:00:43.728Z,27.35
2023-05-12T14:03:10.366Z,27.21
2023-05-12T14:05:37.235Z,27.42
2023-05-12T14:08:04.085Z,27.43
2023-05-12T14:10:32.105Z,27.19
2023-05-12T14:12:58.751Z,26.90
2023-05-12T14:15:36.087Z,27.40
2023-05-12T14:18:11.508Z,27.55
2023-05-12T14:20:38.388Z,27.37
2023-05-12T14:23:04.840Z,27.28
2023-05-12T14:25:31.582Z,27.23
2023-05-12T14:27:58.229Z,27.23
2023-05-12T14:30:24.987Z,27.50
2023-05-12T14:32:52.964Z,27.69
2023-05-12T14:35:20.003Z,27.65
2023-05-12T14:37:46.638Z,27.39
2023-05-12T14:40:13.668Z,27.19
2023-05-12T14:42:41.697Z,26.90
2023-05-12T14:45:08.805Z,26.45
2023-05-12T14:47:36.041Z,26.49
2023-05-12T14:50:02.881Z,26.72
2023-05-12T14:52:30.535Z,27.37
2023-05-12T14:54:57.173Z,27.10
2023-05-12T14:57:24.053Z,27.03
2023-05-12T14:59:53.729Z,26.74
2023-05-12T15:02:20.590Z,26.75
2023-05-12T15:04:48.028Z,27.01
2023-05-12T15:07:14.535Z,27.24
2023-05-12T15:09:41.360Z,27.31
2023-05-12T15:12:08.338Z,27.31
2023-05-12T15:14:36.026Z,27.30
2023-05-12T15:17:02.744Z,27.13
2023-05-12T15:19:29.432Z,27.16
2023-05-12T15:21:56.020Z,27.28
2023-05-12T15:24:22.620Z,27.27
2023-05-12T15:26:49.459Z,27.95
2023-05-12T15:29:15.981Z,28.21
2023-05-12T15:31:42.717Z,28.21
2023-05-12T15:34:09.735Z,28.38
2023-05-12T15:36:36.383Z,28.34
2023-05-12T15:39:03.666Z,28.32
2023-05-12T15:41:30.320Z,28.35
2023-05-12T15:43:57.016Z,28.85
2023-05-12T15:46:23.708Z,28.39
2023-05-12T15:48:50.464Z,28.41
2023-05-12T15:51:17.176Z,28.48
2023-05-12T15:53:44.735Z,28.31
2023-05-12T15:56:11.367Z,28.58
2023-05-12T15:58:38.034Z,28.58
2023-05-12T16:01:05.003Z,28.72
2023-05-12T16:03:32.226Z,28.94
2023-05-12T16:05:58.924Z,29.01
2023-05-12T16:08:26.261Z,29.11
2023-05-12T16:10:52.726Z,29.40
2023-05-12T16:13:19.802Z,29.52
2023-05-12T16:15:49.470Z,29.50
2023-05-12T16:18:16.461Z,29.72
2023-05-12T16:20:43.963Z,29.96
2023-05-12T16:23:10.810Z,30.07
2023-05-12T16:25:37.303Z,30.13
2023-05-12T16:28:04.759Z,29.97
2023-05-12T16:30:31.520Z,30.20
2023-05-12T16:32:58.206Z,30.21
2023-05-12T16:35:24.929Z,30.61
2023-05-12T16:37:51.984Z,30.68
2023-05-12T16:40:18.804Z,30.75
2023-05-12T16:42:45.369Z,30.80
2023-05-12T16:45:12.173Z,30.88
2023-05-12T16:47:38.809Z,31.13
2023-05-12T16:50:06.526Z,31.50
2023-05-12T16:52:33.589Z,31.59
2023-05-12T16:55:00.441Z,31.81
2023-05-12T16:57:27.001Z,32.07
2023-05-12T16:59:53.732Z,31.87
2023-05-12T17:02:20.255Z,31.94
2023-05-12T17:04:47.292Z,32.01
2023-05-12T17:07:14.187Z,31.94
2023-05-12T17:09:40.867Z,31.79
2023-05-12T17:12:08.174Z,31.91
2023-05-12T17:14:35.338Z,31.82
2023-05-12T17:17:02.409Z,31.71
2023-05-12T17:19:32.072Z,31.98
2023-05-12T17:21:59.004Z,31.91
2023-05-12T17:24:26.174Z,32.11
2023-05-12T17:26:53.663Z,32.23
2023-05-12T17:29:20.458Z,32.13
2023-05-12T17:31:47.140Z,32.27
2023-05-12T17:34:13.875Z,32.31
2023-05-12T17:36:40.918Z,32.61
2023-05-12T17:39:07.570Z,32.63
2023-05-12T17:41:34.503Z,33.19
2023-05-12T17:44:01.347Z,33.18
2023-05-12T17:46:28.126Z,33.44
2023-05-12T17:48:54.705Z,33.00
2023-05-12T17:51:21.927Z,33.20
2023-05-12T17:53:48.645Z,33.56
2023-05-12T17:56:15.237Z,33.70
2023-05-12T17:58:41.876Z,33.92
2023-05-12T18:01:08.564Z,33.93
2023-05-12T18:03:36.216Z,34.54
2023-05-12T18:06:05.038Z,34.28
2023-05-12T18:08:31.735Z,35.46
2023-05-12T18:10:58.191Z,35.86
2023-05-12T18:13:24.876Z,36.30
2023-05-12T18:15:52.220Z,36.56
2023-05-12T18:18:18.830Z,37.11
2023-05-12T18:20:47.878Z,37.50
2023-05-12T18:23:14.495Z,37.79
2023-05-12T18:25:42.228Z,38.46
2023-05-12T18:28:08.943Z,38.55
2023-05-12T18:30:35.614Z,39.06
2023-05-12T18:33:02.178Z,39.35
2023-05-12T18:35:29.028Z,40.17
2023-05-12T18:37:55.986Z,40.66
2023-05-12T18:40:22.456Z,41.36
2023-05-12T18:42:50.118Z,41.55
2023-05-12T18:45:17.897Z,42.49
2023-05-12T18:47:45.521Z,41.49
2023-05-12T18:50:12.477Z,41.73
2023-05-12T18:52:39.106Z,41.79
2023-05-12T18:55:06.220Z,42.33
2023-05-12T18:57:33.080Z,42.96
2023-05-12T18:59:59.858Z,43.39
2023-05-12T19:02:26.514Z,43.98
2023-05-12T19:04:54.351Z,44.16
2023-05-12T19:07:21.052Z,44.55
2023-05-12T19:09:47.746Z,44.60
2023-05-12T19:12:14.366Z,45.19
2023-05-12T19:14:42.513Z,45.99
2023-05-12T19:17:09.544Z,45.77
2023-05-12T19:19:36.221Z,45.61
2023-05-12T19:22:03.716Z,45.95
2023-05-12T19:24:30.383Z,46.46
2023-05-12T19:26:57.395Z,47.74
2023-05-12T19:29:24.742Z,46.93
2023-05-12T19:31:52.423Z,47.03
2023-05-12T19:34:20.069Z,47.19
2023-05-12T19:36:47.561Z,47.30
2023-05-12T19:39:14.534Z,48.68
2023-05-12T19:41:41.511Z,48.59
2023-05-12T19:44:08.673Z,48.67
2023-05-12T19:46:35.535Z,49.28
2023-05-12T19:49:03.199Z,49.00
2023-05-12T19:51:30.049Z,48.89
2023-05-12T19:53:56.580Z,49.63
2023-05-12T19:56:23.587Z,49.44
2023-05-12T19:58:51.767Z,50.20
2023-05-12T20:01:18.484Z,49.98
2023-05-12T20:03:45.242Z,50.59
2023-05-12T20:06:12.061Z,50.84
2023-05-12T20:08:38.614Z,50.46
2023-05-12T20:11:06.395Z,51.07
2023-05-12T20:13:33.399Z,51.78
2023-05-12T20:16:00.284Z,51.75
2023-05-12T20:18:28.187Z,52.63
2023-05-12T20:20:54.939Z,52.49
2023-05-12T20:23:21.504Z,51.74
2023-05-12T20:25:48.125Z,52.81
2023-05-12T20:28:14.910Z,52.77
2023-05-12T20:30:41.479Z,52.85
2023-05-12T20:33:08.224Z,52.59
2023-05-12T20:35:34.962Z,52.85
2023-05-12T20:38:02.208Z,53.00
2023-05-12T20:40:29.058Z,53.85
2023-05-12T20:42:55.843Z,53.75
2023-05-12T20:45:22.609Z,53.68
2023-05-12T20:47:49.493Z,53.53
2023-05-12T20:50:16.421Z,53.59
2023-05-12T20:52:44.999Z,54.58
2023-05-12T20:55:11.702Z,54.87
2023-05-12T20:57:39.457Z,55.23
2023-05-12T21:00:13.030Z,54.93
2023-05-12T21:02:40.358Z,55.05
2023-05-12T21:05:09.790Z,55.73
2023-05-12T21:07:36.629Z,54.91
2023-05-12T21:10:03.928Z,55.54
2023-05-12T21:12:31.400Z,55.34
2023-05-12T21:14:58.165Z,55.72
2023-05-12T21:17:25.138Z,55.23
2023-05-12T21:19:51.977Z,56.06
2023-05-12T21:22:21.639Z,56.06
2023-05-12T21:24:51.848Z,55.69
2023-05-12T21:27:18.603Z,55.99
2023-05-12T21:29:45.234Z,56.18
2023-05-12T21:32:12.014Z,56.82
2023-05-12T21:34:38.620Z,57.03
2023-05-12T21:37:05.145Z,57.32
2023-05-12T21:39:32.082Z,58.01
2023-05-12T21:41:58.654Z,58.14
2023-05-12T21:44:25.205Z,57.81
2023-05-12T21:46:52.228Z,58.07
2023-05-12T21:49:18.906Z,57.70
2023-05-12T21:51:45.384Z,57.85
2023-05-12T21:54:12.205Z,58.24
2023-05-12T21:56:38.784Z,58.11
2023-05-12T21:59:05.720Z,58.08
2023-05-12T22:01:32.480Z,58.32
2023-05-12T22:03:59.192Z,58.26
2023-05-12T22:06:26.314Z,58.28
2023-05-12T22:08:55.112Z,58.73
2023-05-12T22:11:22.608Z,58.89
2023-05-12T22:13:49.745Z,58.98
2023-05-12T22:16:17.001Z,59.66
2023-05-12T22:18:45.167Z,59.07
2023-05-12T22:21:12.628Z,59.14
2023-05-12T22:23:41.318Z,59.58
2023-05-12T22:26:08.705Z,59.30
2023-05-12T22:28:35.321Z,59.68
2023-05-12T22:31:02.164Z,59.93
2023-05-12T22:33:28.799Z,60.34
2023-05-12T22:35:58.383Z,59.98
2023-05-12T22:38:26.329Z,60.18
2023-05-12T22:40:52.947Z,60.55
2023-05-12T22:43:19.383Z,60.79
2023-05-12T22:45:52.530Z,60.12
2023-05-12T22:48:19.473Z,60.72
2023-05-12T22:50:46.220Z,60.52
2023-05-12T22:53:13.894Z,60.92
2023-05-12T22:55:40.953Z,61.02
2023-05-12T22:58:07.473Z,61.17
2023-05-12T23:00:34.308Z,60.65
2023-05-12T23:03:03.817Z,60.98
2023-05-12T23:05:30.627Z,60.92
2023-05-12T23:07:57.323Z,61.49
2023-05-12T23:10:24.122Z,61.80
2023-05-12T23:12:50.762Z,61.48
2023-05-12T23:15:18.001Z,61.25
2023-05-12T23:17:44.737Z,61.43
2023-05-12T23:20:11.697Z,62.15
2023-05-12T23:22:38.492Z,62.21
2023-05-12T23:25:05.425Z,61.55
2023-05-12T23:27:32.209Z,61.47
2023-05-12T23:29:59.271Z,61.48
2023-05-12T23:32:26.115Z,61.54
2023-05-12T23:34:52.835Z,62.24
2023-05-12T23:37:19.752Z,63.14
2023-05-12T23:39:46.231Z,62.91
2023-05-12T23:42:12.726Z,63.45
2023-05-12T23:44:39.807Z,62.99
2023-05-12T23:47:06.374Z,63.30
2023-05-12T23:49:32.926Z,63.19
2023-05-12T23:51:59.860Z,63.05
2023-05-12T23:54:26.436Z,64.14
2023-05-12T23:56:52.937Z,63.23
2023-05-12T23:59:19.930Z,63.34
